Condizioni attuali
Sereno



Pressione
1026.92 (hPa) - 30.32 (inHG)
Visibilità

10.0 (km) - 6.2 (miglia)
   Temperatura
10  °C
50°F
7  °C
P. Rugiada
82  %
 Umidità
   Velocità Vento
0  km/h
0  kts
0  mph
0  m/s
   Direzione Vento
Calma
Da Nord
   Dati Aeroporto
LIBP
Località: Pescara International Airport Distanza: 30 km (18.65 mi)
Metar:LIBP 231620Z AUTO 00000KT 9999 NCD 10/07 Q1027
Aggiornato: Mon 23rd November 18:20 pm
   Raw Metar Info
Raw METAR is the most common format in the world for the transmission of observational weather data. It is highly standardized through the International Civil Aviation Organization (ICAO), which allows it to be understood throughout most of the world.
   API Info
Data Provided by
https://www.checkwx.com/weather/LIBP
   © Info
CSS/SVG/PHP scripts were developed by weather34.com for use in the weather34 template © 2015-2020

Guide Info provided by Metar-Wikipedia